createdAt,value
2022-09-21T00:01:39.436Z,102332.75
2022-09-21T00:04:08.009Z,102332.22
2022-09-21T00:06:37.612Z,102331.41
2022-09-21T00:09:09.514Z,102327.25
2022-09-21T00:11:38.241Z,102330.88
2022-09-21T00:14:08.834Z,102326.56
2022-09-21T00:16:37.167Z,102332.22
2022-09-21T00:19:06.884Z,102327.06
2022-09-21T00:21:35.737Z,102327.41
2022-09-21T00:24:04.484Z,102330.22
2022-09-21T00:26:34.208Z,102330.38
2022-09-21T00:29:03.977Z,102334.97
2022-09-21T00:31:33.456Z,102335.16
2022-09-21T00:34:03.845Z,102337.97
2022-09-21T00:36:32.231Z,102336.97
2022-09-21T00:39:02.209Z,102336.16
2022-09-21T00:41:32.346Z,102339.63
2022-09-21T00:44:41.187Z,102339.63
2022-09-21T00:47:14.256Z,102334.69
2022-09-21T00:49:44.221Z,102338.03
2022-09-21T00:52:14.930Z,102332.72
2022-09-21T00:54:46.656Z,102333.38
2022-09-21T00:57:16.822Z,102334.38
2022-09-21T00:59:47.131Z,102333.38
2022-09-21T01:02:15.905Z,102327.88
2022-09-21T01:04:44.747Z,102332.72
2022-09-21T01:07:18.650Z,102324.44
2022-09-21T01:09:51.432Z,102323.44
2022-09-21T01:12:36.010Z,102316.28
2022-09-21T01:15:21.029Z,102322.28
2022-09-21T01:17:58.537Z,102321.47
2022-09-21T01:21:08.175Z,102312.31
2022-09-21T01:23:50.162Z,102318.63
2022-09-21T01:26:27.524Z,102309.66
2022-09-21T01:29:19.812Z,102302.50
2022-09-21T01:31:52.883Z,102307.81
2022-09-21T01:34:29.541Z,102309.34
2022-09-21T01:37:03.167Z,102307.50
2022-09-21T01:39:35.064Z,102303.19
2022-09-21T01:42:07.758Z,102301.34
2022-09-21T01:44:41.315Z,102299.84
2022-09-21T01:47:14.389Z,102303.50
2022-09-21T01:49:47.430Z,102295.72
2022-09-21T01:52:19.979Z,102292.88
2022-09-21T01:54:53.366Z,102295.72
2022-09-21T01:57:29.476Z,102293.19
2022-09-21T02:00:01.574Z,102285.41
2022-09-21T02:02:38.250Z,102297.84
2022-09-21T02:05:07.628Z,102294.38
2022-09-21T02:07:37.141Z,102281.91
2022-09-21T02:10:07.060Z,102278.56
2022-09-21T02:12:35.339Z,102275.75
2022-09-21T02:15:05.638Z,102263.63
2022-09-21T02:17:42.561Z,102261.66
2022-09-21T02:20:20.749Z,102261.66
2022-09-21T02:23:04.112Z,102250.50
2022-09-21T02:25:42.858Z,102249.81
2022-09-21T02:28:21.239Z,102257.78
2022-09-21T02:30:57.429Z,102247.34
2022-09-21T02:33:32.567Z,102242.19
2022-09-21T02:36:09.579Z,102244.19
2022-09-21T02:38:46.291Z,102240.88
2022-09-21T02:41:20.059Z,102236.66
2022-09-21T02:43:52.514Z,102232.06
2022-09-21T02:46:28.035Z,102224.94
2022-09-21T02:49:01.111Z,102224.25
2022-09-21T02:51:32.868Z,102220.91
2022-09-21T02:54:05.010Z,102217.41
2022-09-21T02:56:33.721Z,102215.59
2022-09-21T02:59:06.303Z,102208.09
2022-09-21T03:01:36.405Z,102204.47
2022-09-21T03:04:04.707Z,102203.94
2022-09-21T03:06:33.727Z,102193.00
2022-09-21T03:09:02.065Z,102195.13
2022-09-21T03:11:30.505Z,102192.13
2022-09-21T03:13:59.545Z,102189.66
2022-09-21T03:16:29.189Z,102190.81
2022-09-21T03:18:58.743Z,102190.16
2022-09-21T03:21:26.967Z,102186.97
2022-09-21T03:23:55.244Z,102188.94
2022-09-21T03:26:23.545Z,102181.66
2022-09-21T03:28:52.306Z,102180.84
2022-09-21T03:31:20.439Z,102171.03
2022-09-21T03:33:48.620Z,102179.84
2022-09-21T03:36:18.299Z,102171.88
2022-09-21T03:38:46.387Z,102168.88
2022-09-21T03:41:15.390Z,102163.06
2022-09-21T03:43:43.641Z,102173.16
2022-09-21T03:46:11.923Z,102170.69
2022-09-21T03:48:42.598Z,102168.19
2022-09-21T03:51:10.690Z,102154.59
2022-09-21T03:53:40.130Z,102153.38
2022-09-21T03:56:08.331Z,102153.88
2022-09-21T03:58:36.417Z,102142.59
2022-09-21T04:01:05.276Z,102147.25
2022-09-21T04:03:33.564Z,102147.56
2022-09-21T04:06:03.536Z,102141.75
2022-09-21T04:08:33.090Z,102137.44
2022-09-21T04:11:02.684Z,102141.22
2022-09-21T04:13:30.904Z,102141.41
2022-09-21T04:15:59.391Z,102136.25
2022-09-21T04:18:27.793Z,102137.91
2022-09-21T04:20:55.963Z,102137.75
2022-09-21T04:23:24.209Z,102133.59
2022-09-21T04:25:52.617Z,102135.91
2022-09-21T04:28:22.810Z,102139.03
2022-09-21T04:30:54.198Z,102143.66
2022-09-21T04:33:22.565Z,102149.31
2022-09-21T04:35:56.649Z,102156.56
2022-09-21T04:38:24.879Z,102162.06
2022-09-21T04:40:57.410Z,102160.22
2022-09-21T04:43:27.458Z,102162.72
2022-09-21T04:45:55.721Z,102163.53
2022-09-21T04:48:23.932Z,102155.94
2022-09-21T04:50:52.330Z,102153.97
2022-09-21T04:53:20.481Z,102151.31
2022-09-21T04:55:49.037Z,102160.75
2022-09-21T04:58:20.204Z,102161.13
2022-09-21T05:00:52.847Z,102161.78
2022-09-21T05:03:21.313Z,102159.97
2022-09-21T05:05:50.051Z,102154.66
2022-09-21T05:08:38.772Z,102151.84
2022-09-21T05:11:06.166Z,102152.84
2022-09-21T05:13:34.213Z,102150.03
2022-09-21T05:16:03.811Z,102156.19
2022-09-21T05:18:32.215Z,102167.44
2022-09-21T05:21:01.753Z,102158.50
2022-09-21T05:23:31.426Z,102156.84
2022-09-21T05:26:00.740Z,102163.78
2022-09-21T05:28:29.453Z,102168.28
2022-09-21T05:31:17.124Z,102174.09
2022-09-21T05:33:53.192Z,102159.00
2022-09-21T05:36:40.488Z,102167.97
2022-09-21T05:39:09.352Z,102159.00
2022-09-21T05:41:38.862Z,102175.75
2022-09-21T05:44:07.895Z,102163.31
2022-09-21T05:46:40.841Z,102163.53
2022-09-21T05:49:20.141Z,102162.00
2022-09-21T05:51:58.320Z,102159.53
2022-09-21T05:54:40.768Z,102159.53
2022-09-21T05:57:17.783Z,102157.22
2022-09-21T05:59:58.661Z,102157.22
2022-09-21T06:02:45.614Z,102165.19
2022-09-21T06:05:16.874Z,102161.53
2022-09-21T06:07:44.912Z,102162.53
2022-09-21T06:10:15.004Z,102162.84
2022-09-21T06:12:43.688Z,102159.84
2022-09-21T06:15:13.903Z,102158.19
2022-09-21T06:17:42.082Z,102162.97
2022-09-21T06:20:11.431Z,102165.47
2022-09-21T06:22:43.295Z,102163.78
2022-09-21T06:25:11.742Z,102166.44
2022-09-21T06:27:40.034Z,102168.97
2022-09-21T06:30:09.188Z,102162.47
2022-09-21T06:32:37.260Z,102169.31
2022-09-21T06:35:06.051Z,102171.47
2022-09-21T06:37:34.236Z,102168.66
2022-09-21T06:40:04.167Z,102169.81
2022-09-21T06:42:32.436Z,102175.47
2022-09-21T06:45:00.644Z,102173.16
2022-09-21T06:47:28.824Z,102173.38
2022-09-21T06:49:57.100Z,102166.56
2022-09-21T06:52:25.341Z,102171.38
2022-09-21T06:54:53.551Z,102171.72
2022-09-21T06:57:24.136Z,102165.28
2022-09-21T06:59:52.185Z,102162.13
2022-09-21T07:02:20.337Z,102163.78
2022-09-21T07:04:48.467Z,102164.75
2022-09-21T07:07:16.674Z,102165.44
2022-09-21T07:12:35.380Z,102165.28
2022-09-21T07:15:03.514Z,102166.63
2022-09-21T07:17:36.177Z,102162.81
2022-09-21T07:20:06.034Z,102161.31
2022-09-21T07:22:34.315Z,102174.91
2022-09-21T07:25:02.600Z,102173.28
2022-09-21T07:27:31.975Z,102162.13
2022-09-21T07:30:01.470Z,102171.94
2022-09-21T07:32:31.587Z,102172.25
2022-09-21T07:34:59.801Z,102164.25
2022-09-21T07:37:28.485Z,102175.56
2022-09-21T07:39:56.649Z,102169.06
2022-09-21T07:42:26.575Z,102176.91
2022-09-21T07:45:03.926Z,102180.03
2022-09-21T07:47:34.158Z,102180.19
2022-09-21T07:50:02.276Z,102179.50
2022-09-21T07:52:30.418Z,102182.66
2022-09-21T07:54:58.507Z,102177.97
2022-09-21T07:57:43.990Z,102178.47
2022-09-21T08:00:13.487Z,102183.28
2022-09-21T08:02:47.495Z,102179.47
2022-09-21T08:05:16.346Z,102179.94
2022-09-21T08:07:44.547Z,102180.44
2022-09-21T08:10:13.157Z,102183.75
2022-09-21T08:12:41.526Z,102175.41
2022-09-21T08:15:30.545Z,102178.06
2022-09-21T08:18:02.997Z,102172.41
2022-09-21T08:20:30.909Z,102177.06
2022-09-21T08:23:00.173Z,102176.22
2022-09-21T08:25:28.645Z,102176.03
2022-09-21T08:28:00.760Z,102173.22
2022-09-21T08:30:31.238Z,102180.03
2022-09-21T08:33:00.949Z,102173.38
2022-09-21T08:35:29.058Z,102173.03
2022-09-21T08:37:57.311Z,102171.50
2022-09-21T08:40:25.766Z,102174.28
2022-09-21T08:43:00.372Z,102176.28
2022-09-21T08:45:35.661Z,102170.06
2022-09-21T08:48:11.391Z,102174.50
2022-09-21T08:50:46.740Z,102176.47
2022-09-21T08:53:18.865Z,102166.41
2022-09-21T08:55:47.091Z,102174.00
2022-09-21T08:58:24.144Z,102173.38
2022-09-21T09:01:07.383Z,102173.50
2022-09-21T09:04:04.359Z,102179.41
2022-09-21T09:06:43.503Z,102183.09
2022-09-21T09:09:25.467Z,102179.41
2022-09-21T09:12:11.256Z,102183.44
2022-09-21T09:15:06.889Z,102181.16
2022-09-21T09:17:46.823Z,102184.38
2022-09-21T09:20:20.213Z,102181.78
2022-09-21T09:22:54.921Z,102184.44
2022-09-21T09:25:25.093Z,102182.59
2022-09-21T09:27:56.979Z,102184.72
2022-09-21T09:30:27.503Z,102175.34
2022-09-21T09:33:01.858Z,102180.97
2022-09-21T09:35:35.436Z,102180.25
2022-09-21T09:38:12.128Z,102179.97
2022-09-21T09:40:54.201Z,102179.78
2022-09-21T09:43:35.643Z,102178.41
2022-09-21T09:46:13.739Z,102172.91
2022-09-21T09:49:08.268Z,102171.25
2022-09-21T09:51:40.028Z,102165.34
2022-09-21T09:54:15.070Z,102169.97
2022-09-21T09:56:43.314Z,102168.41
2022-09-21T09:59:20.579Z,102167.88
2022-09-21T10:02:00.777Z,102161.97
2022-09-21T10:04:29.417Z,102168.97
2022-09-21T10:06:59.092Z,102159.56
2022-09-21T10:09:29.660Z,102164.25
2022-09-21T10:12:01.249Z,102151.75
2022-09-21T10:14:34.141Z,102153.41
2022-09-21T10:17:07.113Z,102149.91
2022-09-21T10:19:35.634Z,102150.75
2022-09-21T10:22:06.881Z,102154.31
2022-09-21T10:24:39.052Z,102154.16
2022-09-21T10:27:12.855Z,102150.47
2022-09-21T10:29:43.807Z,102151.09
2022-09-21T10:32:26.626Z,102145.22
2022-09-21T10:35:18.177Z,102140.06
2022-09-21T10:37:53.871Z,102137.66
2022-09-21T10:40:28.099Z,102142.66
2022-09-21T10:42:58.720Z,102132.13
2022-09-21T10:45:29.138Z,102137.66
2022-09-21T10:47:59.931Z,102134.53
2022-09-21T10:50:31.514Z,102134.91
2022-09-21T10:53:12.091Z,102129.13
2022-09-21T10:55:52.608Z,102130.41
2022-09-21T10:58:27.024Z,102127.72
2022-09-21T11:00:56.647Z,102134.28
2022-09-21T11:03:52.603Z,102127.66
2022-09-21T11:06:28.255Z,102117.63
2022-09-21T11:09:02.373Z,102131.81
2022-09-21T11:11:39.658Z,102119.91
2022-09-21T11:14:19.275Z,102122.41
2022-09-21T11:16:54.637Z,102121.22
2022-09-21T11:19:32.164Z,102111.53
2022-09-21T11:22:09.698Z,102110.16
2022-09-21T11:24:48.217Z,102100.28
2022-09-21T11:27:21.371Z,102090.25
2022-09-21T11:29:59.565Z,102090.88
2022-09-21T11:32:53.383Z,102084.75
2022-09-21T11:35:35.175Z,102086.28
2022-09-21T11:38:13.063Z,102079.19
2022-09-21T11:41:00.432Z,102083.88
2022-09-21T11:43:55.596Z,102083.56
2022-09-21T11:46:31.320Z,102076.72
2022-09-21T11:49:28.109Z,102067.81
2022-09-21T11:52:11.769Z,102072.31
2022-09-21T11:55:06.310Z,102063.72
2022-09-21T11:57:44.763Z,102063.47
2022-09-21T12:00:17.683Z,102063.94
2022-09-21T12:03:33.753Z,102068.84
2022-09-21T12:06:29.140Z,102063.22
2022-09-21T12:09:27.589Z,102062.53
2022-09-21T12:12:03.557Z,102058.00
2022-09-21T12:14:39.207Z,102054.06
2022-09-21T12:17:15.031Z,102053.09
2022-09-21T12:19:51.187Z,102058.88
2022-09-21T12:22:23.987Z,102051.75
2022-09-21T12:24:55.969Z,102044.19
2022-09-21T12:27:29.509Z,102051.19
2022-09-21T12:30:05.046Z,102049.56
2022-09-21T12:32:49.542Z,102043.34
2022-09-21T12:35:22.209Z,102050.66
2022-09-21T12:37:58.883Z,102047.88
2022-09-21T12:40:37.605Z,102048.47
2022-09-21T12:43:17.529Z,102039.44
2022-09-21T12:45:53.513Z,102031.72
2022-09-21T12:48:31.152Z,102021.97
2022-09-21T12:51:06.437Z,102019.91
2022-09-21T12:53:37.900Z,102020.56
2022-09-21T12:56:09.934Z,102026.66
2022-09-21T12:59:01.564Z,102018.88
2022-09-21T13:01:38.417Z,102023.47
2022-09-21T13:04:23.447Z,102020.81
2022-09-21T13:07:30.219Z,102015.09
2022-09-21T13:09:59.292Z,102013.72
2022-09-21T13:12:34.124Z,102014.19
2022-09-21T13:15:13.494Z,102015.44
2022-09-21T13:17:43.252Z,102010.63
2022-09-21T13:20:19.550Z,102013.91
2022-09-21T13:22:49.295Z,102011.38
2022-09-21T13:25:24.044Z,102008.25
2022-09-21T13:28:05.236Z,102011.09
2022-09-21T13:30:37.570Z,102000.56
2022-09-21T13:33:31.590Z,101995.81
2022-09-21T13:36:19.757Z,102001.34
2022-09-21T13:39:17.173Z,101995.72
2022-09-21T13:42:02.380Z,101991.78
2022-09-21T13:44:42.152Z,101986.84
2022-09-21T13:47:12.095Z,101985.44
2022-09-21T13:49:46.376Z,101991.91
2022-09-21T13:52:28.670Z,101986.00
2022-09-21T13:55:00.768Z,101975.94
2022-09-21T13:57:37.062Z,101967.06
2022-09-21T14:00:35.935Z,101976.28
2022-09-21T14:03:08.158Z,101969.81
2022-09-21T14:05:42.974Z,101969.56
2022-09-21T14:08:23.332Z,101965.47
2022-09-21T14:10:55.388Z,101970.81
2022-09-21T14:13:32.674Z,101961.91
2022-09-21T14:16:38.269Z,101953.47
2022-09-21T14:19:45.087Z,101952.03
2022-09-21T14:22:43.145Z,101944.03
2022-09-21T14:25:28.169Z,101938.69
2022-09-21T14:28:01.889Z,101930.88
2022-09-21T14:30:35.609Z,101943.44
2022-09-21T14:33:25.574Z,101940.00
2022-09-21T14:35:55.779Z,101950.16
2022-09-21T14:38:28.466Z,101946.13
2022-09-21T14:41:01.198Z,101946.34
2022-09-21T14:43:33.976Z,101936.47
2022-09-21T14:46:36.286Z,101926.16
2022-09-21T14:49:23.240Z,101921.25
2022-09-21T14:52:04.507Z,101909.72
2022-09-21T14:54:50.580Z,101906.44
2022-09-21T14:57:50.900Z,101902.72
2022-09-21T15:00:23.541Z,101892.44
2022-09-21T15:03:05.800Z,101890.78
2022-09-21T15:05:37.621Z,101888.97
2022-09-21T15:08:41.249Z,101881.56
2022-09-21T15:11:18.896Z,101874.78
2022-09-21T15:14:11.376Z,101871.06
2022-09-21T15:16:43.443Z,101875.00
2022-09-21T15:19:23.969Z,101874.38
2022-09-21T15:21:54.033Z,101880.78
2022-09-21T15:24:26.845Z,101883.22
2022-09-21T15:27:05.840Z,101885.47
2022-09-21T15:29:35.197Z,101885.47
2022-09-21T15:32:04.055Z,101881.16
2022-09-21T15:34:32.377Z,101880.94
2022-09-21T15:37:16.561Z,101877.03
2022-09-21T15:39:45.120Z,101866.94
2022-09-21T15:42:23.132Z,101873.09
2022-09-21T15:45:06.051Z,101871.84
2022-09-21T15:47:34.764Z,101872.28
2022-09-21T15:50:03.321Z,101867.31
2022-09-21T15:52:37.997Z,101873.69
2022-09-21T15:55:13.198Z,101877.38
2022-09-21T15:57:44.350Z,101876.38
2022-09-21T16:00:22.263Z,101869.13
2022-09-21T16:03:04.936Z,101860.72
2022-09-21T16:05:47.256Z,101859.84
2022-09-21T16:08:28.424Z,101847.72
2022-09-21T16:11:14.232Z,101849.97
2022-09-21T16:14:02.674Z,101852.38
2022-09-21T16:16:30.904Z,101858.94
2022-09-21T16:19:00.733Z,101855.22
2022-09-21T16:21:32.934Z,101860.53
2022-09-21T16:24:12.568Z,101860.50
2022-09-21T16:26:42.735Z,101858.47
2022-09-21T16:29:23.672Z,101854.72
2022-09-21T16:31:52.063Z,101858.63
2022-09-21T16:34:33.318Z,101848.53
2022-09-21T16:37:04.309Z,101846.69
2022-09-21T16:39:32.491Z,101844.59
2022-09-21T16:42:05.635Z,101843.78
2022-09-21T16:44:36.854Z,101850.13
2022-09-21T16:47:05.454Z,101846.81
2022-09-21T16:49:35.895Z,101835.53
2022-09-21T16:52:04.684Z,101836.50
2022-09-21T16:54:32.920Z,101840.53
2022-09-21T16:57:02.867Z,101834.16
2022-09-21T16:59:33.273Z,101836.81
2022-09-21T17:02:05.167Z,101828.56
2022-09-21T17:04:35.362Z,101826.06
2022-09-21T17:07:05.147Z,101831.00
2022-09-21T17:09:38.277Z,101819.69
2022-09-21T17:12:08.668Z,101825.03
2022-09-21T17:14:40.910Z,101818.66
2022-09-21T17:17:18.925Z,101820.69
2022-09-21T17:19:50.035Z,101814.53
2022-09-21T17:22:18.709Z,101810.03
2022-09-21T17:24:51.226Z,101811.66
2022-09-21T17:27:22.785Z,101814.69
2022-09-21T17:29:53.969Z,101809.34
2022-09-21T17:32:25.010Z,101807.69
2022-09-21T17:34:59.041Z,101809.94
2022-09-21T17:37:27.423Z,101812.34
2022-09-21T17:39:55.602Z,101811.75
2022-09-21T17:42:25.912Z,101814.53
2022-09-21T17:45:12.807Z,101813.28
2022-09-21T17:47:43.210Z,101811.84
2022-09-21T17:50:23.243Z,101810.13
2022-09-21T17:53:09.558Z,101810.13
2022-09-21T17:55:38.774Z,101801.66
2022-09-21T17:58:34.518Z,101810.09
2022-09-21T18:01:08.527Z,101801.84
2022-09-21T18:03:41.210Z,101798.25
2022-09-21T18:06:10.908Z,101801.72
2022-09-21T18:08:40.876Z,101794.72
2022-09-21T18:11:22.469Z,101800.44
2022-09-21T18:13:55.226Z,101802.84
2022-09-21T18:16:28.934Z,101800.19
2022-09-21T18:19:05.493Z,101804.03
2022-09-21T18:21:40.850Z,101805.63
2022-09-21T18:24:19.637Z,101818.09
2022-09-21T18:26:49.135Z,101806.78
2022-09-21T18:29:40.660Z,101817.84
2022-09-21T18:32:34.398Z,101805.06
2022-09-21T18:35:17.003Z,101811.09
2022-09-21T18:38:00.180Z,101809.47
2022-09-21T18:40:36.568Z,101818.22
2022-09-21T18:43:22.795Z,101815.91
2022-09-21T18:45:56.774Z,101822.06
2022-09-21T18:48:37.256Z,101807.72
2022-09-21T18:51:16.458Z,101808.47
2022-09-21T18:53:48.704Z,101804.38
2022-09-21T18:56:17.580Z,101805.56
2022-09-21T18:58:46.689Z,101805.75
2022-09-21T19:01:17.104Z,101807.75
2022-09-21T19:03:46.204Z,101806.31
2022-09-21T19:06:27.511Z,101817.13
2022-09-21T19:09:02.980Z,101811.19
2022-09-21T19:11:38.535Z,101817.06
2022-09-21T19:14:14.503Z,101815.63
2022-09-21T19:16:53.500Z,101804.97
2022-09-21T19:19:32.708Z,101802.47
2022-09-21T19:22:13.806Z,101809.81
2022-09-21T19:24:50.516Z,101802.84
2022-09-21T19:27:29.479Z,101804.66
2022-09-21T19:30:06.741Z,101796.13
2022-09-21T19:32:39.760Z,101787.50
2022-09-21T19:35:17.869Z,101788.88
2022-09-21T19:37:48.563Z,101776.78
2022-09-21T19:40:18.802Z,101773.91
2022-09-21T19:43:00.310Z,101779.44
2022-09-21T19:45:34.899Z,101780.81
2022-09-21T19:48:06.965Z,101774.84
2022-09-21T19:50:44.375Z,101784.66
2022-09-21T19:53:32.645Z,101777.50
2022-09-21T19:56:19.799Z,101780.16
2022-09-21T19:59:06.123Z,101772.91
2022-09-21T20:01:40.263Z,101779.88
2022-09-21T20:04:08.792Z,101774.94
2022-09-21T20:06:43.634Z,101766.94
2022-09-21T20:09:20.180Z,101758.13
2022-09-21T20:11:56.546Z,101749.28
2022-09-21T20:14:34.065Z,101762.59
2022-09-21T20:17:08.720Z,101759.50
2022-09-21T20:19:48.326Z,101763.56
2022-09-21T20:22:18.637Z,101769.78
2022-09-21T20:24:55.314Z,101768.34
2022-09-21T20:27:34.782Z,101767.03
2022-09-21T20:30:03.375Z,101755.56
2022-09-21T20:32:31.811Z,101758.03
2022-09-21T20:34:59.920Z,101751.94
2022-09-21T20:37:30.489Z,101755.00
2022-09-21T20:40:00.952Z,101751.13
2022-09-21T20:42:29.051Z,101741.97
2022-09-21T20:44:57.185Z,101736.63
2022-09-21T20:47:25.413Z,101731.31
2022-09-21T20:49:53.541Z,101719.44
2022-09-21T20:52:21.743Z,101719.63
2022-09-21T20:54:50.544Z,101718.44
2022-09-21T20:57:20.423Z,101715.78
2022-09-21T20:59:48.672Z,101723.38
2022-09-21T21:02:17.866Z,101724.03
2022-09-21T21:04:45.949Z,101735.50
2022-09-21T21:07:14.050Z,101729.97
2022-09-21T21:09:42.269Z,101722.63
2022-09-21T21:12:10.674Z,101725.09
2022-09-21T21:14:40.301Z,101719.41
2022-09-21T21:17:08.550Z,101728.03
2022-09-21T21:19:36.632Z,101722.69
2022-09-21T21:22:05.373Z,101714.72
2022-09-21T21:24:43.687Z,101709.19
2022-09-21T21:27:16.415Z,101696.88
2022-09-21T21:29:46.776Z,101699.75
2022-09-21T21:32:15.573Z,101703.84
2022-09-21T21:34:43.898Z,101698.72
2022-09-21T21:37:12.878Z,101709.38
2022-09-21T21:39:41.568Z,101702.41
2022-09-21T21:42:10.048Z,101707.75
2022-09-21T21:44:38.514Z,101701.75
2022-09-21T21:47:35.110Z,101704.25
2022-09-21T21:49:56.808Z,101690.28
2022-09-21T21:52:25.233Z,101685.78
2022-09-21T21:54:54.997Z,101697.06
2022-09-21T21:57:23.221Z,101688.69
2022-09-21T21:59:51.372Z,101691.09
2022-09-21T22:02:20.951Z,101688.88
2022-09-21T22:04:49.235Z,101683.94
2022-09-21T22:07:17.251Z,101686.78
2022-09-21T22:09:45.392Z,101690.47
2022-09-21T22:12:13.565Z,101688.00
2022-09-21T22:14:41.675Z,101693.50
2022-09-21T22:17:10.157Z,101694.91
2022-09-21T22:19:39.684Z,101696.56
2022-09-21T22:22:07.943Z,101686.53
2022-09-21T22:24:36.242Z,101688.84
2022-09-21T22:27:04.451Z,101680.00
2022-09-21T22:29:32.717Z,101675.13
2022-09-21T22:32:01.117Z,101676.34
2022-09-21T22:34:29.438Z,101673.84
2022-09-21T22:36:59.576Z,101667.53
2022-09-21T22:39:28.994Z,101659.53
2022-09-21T22:41:57.389Z,101654.19
2022-09-21T22:44:25.686Z,101655.84
2022-09-21T22:46:53.829Z,101658.50
2022-09-21T22:49:22.510Z,101652.53
2022-09-21T22:51:50.976Z,101653.81
2022-09-21T22:54:20.626Z,101647.66
2022-09-21T22:56:48.999Z,101649.25
2022-09-21T22:59:17.285Z,101646.78
2022-09-21T23:01:45.969Z,101645.97
2022-09-21T23:04:15.171Z,101645.56
2022-09-21T23:06:46.059Z,101643.53
2022-09-21T23:09:16.069Z,101633.72
2022-09-21T23:11:48.083Z,101634.72
2022-09-21T23:14:17.423Z,101630.03
2022-09-21T23:16:45.897Z,101636.75
2022-09-21T23:19:16.511Z,101635.72
2022-09-21T23:21:46.753Z,101631.03
2022-09-21T23:24:14.893Z,101624.69
2022-09-21T23:26:43.450Z,101633.25
2022-09-21T23:29:16.912Z,101624.25
2022-09-21T23:31:46.419Z,101613.59
2022-09-21T23:34:16.864Z,101604.97
2022-09-21T23:36:46.107Z,101608.91
2022-09-21T23:39:16.215Z,101607.06
2022-09-21T23:41:45.146Z,101610.34
2022-09-21T23:44:15.096Z,101609.16
2022-09-21T23:46:43.942Z,101604.19
2022-09-21T23:49:12.322Z,101600.53
2022-09-21T23:51:41.453Z,101603.44
2022-09-21T23:54:10.058Z,101600.16
2022-09-21T23:56:38.560Z,101596.88
2022-09-21T23:59:07.235Z,101590.44
